Time;durP1;ratioP1;P1;durP2;ratioP2;P2;SDS_P1;SDS_P2;PMS_P1;PMS_P2;Temp;Humidity;BMP_temperature;BMP_pressure;BME280_temperature;BME280_humidity;BME280_pressure;Samples;Min_cycle;Max_cycle;Signal;HPM_P1;HPM_P2
2022/01/26 00:16:44;;;;;;;;;;;;;;;19.60;28.45;101623.19;4805960;29;1149;-65
2022/01/26 00:31:12;;;;;;;;;;;;;;;21.16;25.93;101606.94;4810819;29;1223;-64
2022/01/26 00:41:03;;;;;;;;;;;;;;;18.70;29.78;101603.00;4997612;28;910;-65
2022/01/26 00:43:29;;;;;;;;;;;;;;;18.54;30.07;101609.56;4998489;28;1172;-65
2022/01/26 00:45:57;;;;;;;;;;;;;;;20.30;27.17;101606.09;4998743;28;783;-65
2022/01/26 00:48:23;;;;;;;;;;;;;;;21.15;25.99;101588.72;4997993;28;870;-65
2022/01/26 00:50:52;;;;;;;;;;;;;;;21.08;26.18;101590.94;4998386;28;798;-65
2022/01/26 00:53:23;;;;;;;;;;;;;;;21.15;25.94;101588.72;4998584;28;835;-65
2022/01/26 00:55:49;;;;;;;;;;;;;;;19.96;27.87;101592.88;4997558;28;1095;-64
2022/01/26 00:58:15;;;;;;;;;;;;;;;19.23;28.86;101593.88;4998393;28;1931;-64
2022/01/26 01:00:40;;;;;;;;;;;;;;;18.81;29.66;101581.84;4998070;28;843;-63
2022/01/26 01:03:06;;;;;;;;;;;;;;;18.37;30.00;101591.28;4996431;28;911;-62
2022/01/26 01:05:40;;;;;;;;;;;;;;;18.94;29.71;101591.59;4998517;28;819;-62
2022/01/26 01:08:11;;;;;;;;;;;;;;;20.93;26.27;101605.69;4998708;28;766;-63
2022/01/26 01:10:37;;;;;;;;;;;;;;;20.83;26.26;101594.66;4997292;28;973;-63
2022/01/26 01:13:03;;;;;;;;;;;;;;;21.23;25.82;101589.22;4997213;28;999;-64
2022/01/26 01:15:29;;;;;;;;;;;;;;;20.50;26.82;101583.97;4998445;28;762;-65
2022/01/26 01:18:04;;;;;;;;;;;;;;;19.78;27.96;101586.81;4997691;28;1894;-66
2022/01/26 01:21:03;;;;;;;;;;;;;;;18.89;29.54;101577.81;4998555;28;790;-65
2022/01/26 01:31:15;;;;;;;;;;;;;;;20.82;26.45;101573.69;5012201;28;789;-66
2022/01/26 01:33:44;;;;;;;;;;;;;;;21.00;26.07;101563.91;5017432;28;774;-66
2022/01/26 01:36:11;;;;;;;;;;;;;;;20.68;26.80;101581.75;5017038;28;853;-66
2022/01/26 01:38:40;;;;;;;;;;;;;;;19.70;28.04;101581.00;5013666;28;1906;-65
2022/01/26 01:41:06;;;;;;;;;;;;;;;19.07;28.95;101574.56;5006179;28;807;-65
2022/01/26 01:43:31;;;;;;;;;;;;;;;18.66;29.70;101571.59;4997905;28;839;-64
2022/01/26 01:45:56;;;;;;;;;;;;;;;19.52;28.58;101574.91;4997293;28;815;-65
2022/01/26 01:48:26;;;;;;;;;;;;;;;21.17;26.11;101563.53;4998101;28;742;-64
2022/01/26 01:50:53;;;;;;;;;;;;;;;21.14;25.96;101564.94;4999805;28;833;-65
2022/01/26 01:53:18;;;;;;;;;;;;;;;21.43;25.41;101578.00;4997451;28;838;-64
2022/01/26 01:55:48;;;;;;;;;;;;;;;20.67;26.65;101567.09;5002018;28;977;-65
2022/01/26 01:58:13;;;;;;;;;;;;;;;19.80;28.04;101561.72;4997487;28;1983;-65
2022/01/26 02:00:39;;;;;;;;;;;;;;;19.00;28.97;101551.09;4998072;28;750;-65
2022/01/26 02:03:04;;;;;;;;;;;;;;;18.54;29.90;101560.81;4997712;28;743;-64
2022/01/26 02:05:30;;;;;;;;;;;;;;;18.89;29.63;101544.72;5003533;28;848;-65
2022/01/26 02:07:55;;;;;;;;;;;;;;;20.91;26.33;101551.78;4997418;28;886;-65
2022/01/26 02:10:23;;;;;;;;;;;;;;;20.89;26.31;101554.00;5001218;28;850;-65
2022/01/26 02:12:52;;;;;;;;;;;;;;;21.38;25.64;101553.16;4998831;28;1093;-65
2022/01/26 02:15:26;;;;;;;;;;;;;;;20.71;26.53;101545.25;4997518;28;827;-65
2022/01/26 02:55:48;;;;;;;;;;;;;;;19.95;27.60;101549.81;5002470;28;836;-66
2022/01/26 03:03:38;;;;;;;;;;;;;;;18.74;29.73;101535.25;4997084;28;795;-66
2022/01/26 03:06:09;;;;;;;;;;;;;;;21.05;26.09;101538.16;4996838;28;869;-66
2022/01/26 03:08:39;;;;;;;;;;;;;;;21.12;25.76;101539.50;4997725;28;825;-65
2022/01/26 03:11:13;;;;;;;;;;;;;;;21.47;25.34;101526.53;5000817;28;796;-65
2022/01/26 03:13:55;;;;;;;;;;;;;;;20.63;26.68;101535.56;4996925;28;809;-66
2022/01/26 03:16:29;;;;;;;;;;;;;;;19.59;28.18;101530.50;4996651;28;782;-65
2022/01/26 03:19:15;;;;;;;;;;;;;;;18.81;29.30;101529.50;4996418;28;1969;-65
2022/01/26 03:28:12;;;;;;;;;;;;;;;18.44;29.98;101528.53;5002480;28;889;-65
2022/01/26 03:30:02;;;;;;;;;;;;;;;21.05;26.06;101527.94;5009225;28;802;-65
2022/01/26 03:35:17;;;;;;;;;;;;;;;20.63;26.29;101509.88;4996524;28;786;-66
2022/01/26 03:37:51;;;;;;;;;;;;;;;19.53;28.30;101520.56;4995926;28;1978;-65
2022/01/26 03:40:17;;;;;;;;;;;;;;;18.97;28.99;101513.88;5001611;28;885;-65
2022/01/26 03:42:42;;;;;;;;;;;;;;;18.43;30.18;101528.81;4996619;28;783;-65
2022/01/26 03:45:08;;;;;;;;;;;;;;;20.71;26.49;101528.66;4997681;28;771;-65
2022/01/26 03:47:33;;;;;;;;;;;;;;;21.37;25.41;101518.31;4999606;28;876;-66
2022/01/26 03:49:59;;;;;;;;;;;;;;;21.35;25.52;101520.56;4996714;28;871;-67
2022/01/26 03:52:24;;;;;;;;;;;;;;;21.07;26.07;101514.66;4999221;28;802;-65
2022/01/26 03:54:49;;;;;;;;;;;;;;;20.33;26.88;101519.94;5005135;28;880;-65
2022/01/26 03:57:15;;;;;;;;;;;;;;;19.35;28.28;101531.06;4999575;28;1969;-65
2022/01/26 03:59:40;;;;;;;;;;;;;;;19.14;28.79;101524.69;5000504;28;909;-65
2022/01/26 04:02:06;;;;;;;;;;;;;;;19.86;27.74;101523.91;4999963;28;814;-65
2022/01/26 04:04:37;;;;;;;;;;;;;;;21.44;25.56;101506.91;4999982;28;822;-65
2022/01/26 04:07:03;;;;;;;;;;;;;;;20.41;26.66;101524.91;4999566;28;830;-65
2022/01/26 04:09:28;;;;;;;;;;;;;;;20.67;26.67;101508.19;5003226;28;838;-65
2022/01/26 04:11:54;;;;;;;;;;;;;;;20.41;26.74;101513.00;5003646;28;814;-64
2022/01/26 04:14:24;;;;;;;;;;;;;;;19.95;27.42;101513.94;4999319;28;806;-64
2022/01/26 04:16:49;;;;;;;;;;;;;;;19.59;27.99;101508.44;4999643;28;900;-64
2022/01/26 04:19:15;;;;;;;;;;;;;;;19.02;28.89;101505.63;4999280;28;1985;-62
2022/01/26 04:26:42;;;;;;;;;;;;;;;19.19;28.96;101508.13;5005398;28;880;-58
2022/01/26 04:29:13;;;;;;;;;;;;;;;19.75;28.11;101506.50;5012407;28;857;-61
2022/01/26 04:31:39;;;;;;;;;;;;;;;19.28;28.53;101492.72;5018169;28;822;-62
2022/01/26 04:34:04;;;;;;;;;;;;;;;18.60;29.61;101496.38;5004678;28;1215;-63
2022/01/26 04:36:36;;;;;;;;;;;;;;;18.46;29.65;101495.22;5003053;28;771;-63
2022/01/26 04:39:06;;;;;;;;;;;;;;;18.75;29.48;101481.81;5000216;28;1907;-64
2022/01/26 04:41:38;;;;;;;;;;;;;;;18.95;29.00;101488.53;5003540;28;841;-65
2022/01/26 04:44:11;;;;;;;;;;;;;;;19.22;28.84;101498.47;4998925;28;746;-65
2022/01/26 04:46:36;;;;;;;;;;;;;;;19.01;28.87;101492.13;4999273;28;834;-64
2022/01/26 04:49:02;;;;;;;;;;;;;;;18.55;29.55;101490.00;4999484;28;845;-57
2022/01/26 04:51:27;;;;;;;;;;;;;;;18.51;29.64;101495.25;4998697;28;819;-57
2022/01/26 04:53:53;;;;;;;;;;;;;;;19.75;27.81;101495.44;5004665;28;1256;-56
2022/01/26 04:56:18;;;;;;;;;;;;;;;21.20;25.45;101488.28;5010706;28;1398;-58
2022/01/26 04:58:44;;;;;;;;;;;;;;;20.82;26.03;101493.53;5002895;28;1985;-58
2022/01/26 05:01:09;;;;;;;;;;;;;;;21.49;24.99;101496.63;5000452;28;1505;-58
2022/01/26 05:03:35;;;;;;;;;;;;;;;20.38;26.75;101505.28;5006371;28;1254;-58
2022/01/26 05:06:00;;;;;;;;;;;;;;;19.72;27.60;101510.63;4998689;28;1324;-58
2022/01/26 05:08:25;;;;;;;;;;;;;;;19.00;29.00;101502.31;4998913;28;877;-58
2022/01/26 05:10:51;;;;;;;;;;;;;;;19.11;28.77;101503.16;5000539;28;869;-59
2022/01/26 05:13:16;;;;;;;;;;;;;;;19.97;27.28;101504.28;4998786;28;1281;-58
2022/01/26 05:15:42;;;;;;;;;;;;;;;19.43;28.24;101496.56;5005833;28;829;-58
2022/01/26 05:18:08;;;;;;;;;;;;;;;18.80;29.12;101492.88;5001572;28;1906;-58
2022/01/26 05:20:34;;;;;;;;;;;;;;;18.39;29.73;101492.69;4997966;28;829;-58
2022/01/26 05:23:00;;;;;;;;;;;;;;;20.39;26.60;101499.47;4998502;28;1046;-58
2022/01/26 05:25:25;;;;;;;;;;;;;;;20.96;25.67;101510.31;5003728;28;818;-58
2022/01/26 05:27:51;;;;;;;;;;;;;;;21.50;25.17;101501.06;5002984;28;1305;-58
2022/01/26 05:30:16;;;;;;;;;;;;;;;22.10;24.38;101502.72;5006856;28;1391;-60
2022/01/26 05:32:42;;;;;;;;;;;;;;;19.92;27.08;101506.22;5006010;28;1192;-59
2022/01/26 05:35:07;;;;;;;;;;;;;;;20.44;26.45;101506.91;5004278;28;1392;-59
2022/01/26 05:37:33;;;;;;;;;;;;;;;20.45;26.55;101492.81;5006084;28;1983;-59
2022/01/26 05:39:58;;;;;;;;;;;;;;;20.33;26.70;101500.63;5003010;28;866;-59
2022/01/26 05:42:24;;;;;;;;;;;;;;;20.25;26.94;101498.44;4997659;28;842;-58
2022/01/26 05:44:51;;;;;;;;;;;;;;;19.60;27.93;101488.84;5001859;28;1400;-58
2022/01/26 05:47:19;;;;;;;;;;;;;;;19.14;28.41;101497.94;5005392;28;1319;-58
2022/01/26 05:49:45;;;;;;;;;;;;;;;19.27;28.62;101510.34;5006782;28;1542;-58
2022/01/26 05:52:10;;;;;;;;;;;;;;;20.01;27.44;101515.59;5007113;28;1236;-59
2022/01/26 05:54:36;;;;;;;;;;;;;;;19.56;27.71;101509.81;5002980;28;1204;-58
2022/01/26 05:57:02;;;;;;;;;;;;;;;19.20;28.34;101506.22;5010069;28;1250;-58
2022/01/26 05:59:28;;;;;;;;;;;;;;;19.48;28.21;101502.09;5002082;28;1989;-59
2022/01/26 06:01:55;;;;;;;;;;;;;;;19.78;27.42;101515.06;4999968;28;1522;-56
2022/01/26 06:04:20;;;;;;;;;;;;;;;19.53;28.02;101520.56;4998090;28;802;-57
2022/01/26 06:06:46;;;;;;;;;;;;;;;19.38;28.06;101518.66;5009985;28;806;-57
2022/01/26 06:09:11;;;;;;;;;;;;;;;19.39;28.24;101521.13;5016909;28;845;-58
2022/01/26 06:11:37;;;;;;;;;;;;;;;20.21;26.76;101524.94;5008116;28;1504;-58
2022/01/26 06:14:02;;;;;;;;;;;;;;;19.37;27.94;101520.56;5013780;28;756;-57
2022/01/26 06:16:28;;;;;;;;;;;;;;;18.79;29.19;101518.75;4998370;28;818;-58
2022/01/26 06:18:53;;;;;;;;;;;;;;;18.52;29.42;101512.59;5000912;28;1977;-58
2022/01/26 06:21:18;;;;;;;;;;;;;;;19.27;28.57;101518.63;4997936;28;1487;-57
2022/01/26 06:23:44;;;;;;;;;;;;;;;20.98;25.97;101517.16;5016526;28;1005;-58
2022/01/26 06:26:10;;;;;;;;;;;;;;;20.85;26.04;101507.56;5003860;28;987;-58
2022/01/26 06:28:35;;;;;;;;;;;;;;;21.83;24.57;101520.72;4998036;28;804;-57
2022/01/26 06:31:03;;;;;;;;;;;;;;;21.53;25.27;101508.81;5001340;28;1376;-61
2022/01/26 06:33:29;;;;;;;;;;;;;;;19.68;27.89;101517.81;5000363;28;1049;-62
2022/01/26 06:35:57;;;;;;;;;;;;;;;20.45;27.13;101516.84;4997648;28;801;-59
2022/01/26 06:38:24;;;;;;;;;;;;;;;19.45;28.29;101517.25;5000469;28;1957;-58
2022/01/26 06:40:50;;;;;;;;;;;;;;;19.08;28.95;101521.09;5006108;28;1187;-62
2022/01/26 06:43:16;;;;;;;;;;;;;;;18.98;29.08;101505.34;5003418;28;1349;-61
2022/01/26 06:45:49;;;;;;;;;;;;;;;18.93;29.43;101499.81;5003370;28;1285;-62
2022/01/26 06:50:43;;;;;;;;;;;;;;;18.36;30.13;101501.50;5009217;28;825;-60
2022/01/26 06:53:09;;;;;;;;;;;;;;;18.13;30.38;101517.34;5009931;28;1430;-61
2022/01/26 06:55:35;;;;;;;;;;;;;;;17.92;30.74;101497.13;5005722;28;917;-60
2022/01/26 06:58:01;;;;;;;;;;;;;;;18.08;30.32;101509.06;5003627;28;1907;-60
2022/01/26 07:00:26;;;;;;;;;;;;;;;18.69;29.21;101510.47;5011694;28;1148;-59
2022/01/26 07:02:54;;;;;;;;;;;;;;;19.15;28.49;101499.59;5004623;28;945;-60
2022/01/26 07:05:19;;;;;;;;;;;;;;;19.15;28.48;101499.59;4997004;28;853;-59
2022/01/26 07:07:45;;;;;;;;;;;;;;;18.38;29.39;101499.28;5006571;28;1375;-60
2022/01/26 07:10:10;;;;;;;;;;;;;;;17.99;30.28;101494.13;5010498;28;979;-60
2022/01/26 07:12:36;;;;;;;;;;;;;;;17.97;30.42;101501.84;4997256;28;881;-60
2022/01/26 07:23:00;;;;;;;;;;;;;;;19.32;28.23;101499.31;5002178;28;1267;-61
2022/01/26 07:25:26;;;;;;;;;;;;;;;19.27;28.28;101484.72;5002645;28;1169;-61
2022/01/26 07:27:51;;;;;;;;;;;;;;;19.18;28.34;101492.72;5012243;28;1321;-61
2022/01/26 07:30:17;;;;;;;;;;;;;;;18.71;28.89;101486.22;5017596;28;1140;-61
2022/01/26 07:32:43;;;;;;;;;;;;;;;18.65;29.13;101490.06;5011899;28;1132;-61
2022/01/26 07:35:08;;;;;;;;;;;;;;;18.42;29.18;101492.16;5017951;28;1215;-60
2022/01/26 07:37:34;;;;;;;;;;;;;;;18.21;29.49;101490.41;5016707;28;1977;-59
2022/01/26 07:42:27;;;;;;;;;;;;;;;19.34;27.87;101501.00;5000604;28;794;-60
2022/01/26 07:44:53;;;;;;;;;;;;;;;19.53;27.49;101482.78;4999423;28;814;-60
2022/01/26 07:47:18;;;;;;;;;;;;;;;19.36;27.92;101487.75;5003515;28;1401;-63
2022/01/26 07:49:44;;;;;;;;;;;;;;;19.17;27.95;101490.19;5016199;28;1474;-60
2022/01/26 07:52:09;;;;;;;;;;;;;;;19.11;28.72;101481.94;5006433;28;1380;-62
2022/01/26 07:54:35;;;;;;;;;;;;;;;18.93;28.96;101490.72;5017008;28;1363;-60
2022/01/26 07:57:01;;;;;;;;;;;;;;;18.91;29.90;101479.13;5013745;28;1211;-61
2022/01/26 07:59:27;;;;;;;;;;;;;;;18.76;30.62;101486.25;5015752;28;1914;-63
2022/01/26 08:01:52;;;;;;;;;;;;;;;19.00;30.98;101479.44;5013434;28;1160;-63
2022/01/26 08:04:18;;;;;;;;;;;;;;;18.88;31.40;101482.44;5013859;28;1288;-61
2022/01/26 08:06:44;;;;;;;;;;;;;;;19.17;31.26;101484.69;5017694;28;1296;-62
2022/01/26 08:09:10;;;;;;;;;;;;;;;19.31;30.63;101485.81;5017667;28;1124;-60
2022/01/26 08:11:36;;;;;;;;;;;;;;;19.26;30.81;101505.09;5016504;28;1129;-61
2022/01/26 08:14:01;;;;;;;;;;;;;;;19.34;30.44;101485.25;5016603;28;1251;-61
2022/01/26 08:16:27;;;;;;;;;;;;;;;19.44;30.36;101495.47;5011013;28;1240;-60
2022/01/26 08:18:52;;;;;;;;;;;;;;;19.42;30.27;101497.66;5000337;28;1914;-64
2022/01/26 08:21:19;;;;;;;;;;;;;;;19.36;30.16;101494.06;4999918;28;862;-65
2022/01/26 08:23:45;;;;;;;;;;;;;;;19.33;30.36;101497.38;5017327;28;994;-60
2022/01/26 08:26:11;;;;;;;;;;;;;;;19.36;30.05;101505.09;5028693;28;994;-61
2022/01/26 08:28:40;;;;;;;;;;;;;;;19.34;30.16;101493.53;5017616;28;1088;-62
2022/01/26 08:31:05;;;;;;;;;;;;;;;19.41;29.80;101507.06;5014931;28;1038;-62
2022/01/26 08:33:31;;;;;;;;;;;;;;;19.42;29.79;101498.50;5016117;28;1152;-62
2022/01/26 08:35:56;;;;;;;;;;;;;;;19.45;29.45;101500.72;5012892;28;1259;-60
2022/01/26 08:38:23;;;;;;;;;;;;;;;19.57;29.11;101494.09;5018805;28;1977;-60
2022/01/26 08:40:49;;;;;;;;;;;;;;;19.43;29.50;101502.09;5007846;28;1312;-61
2022/01/26 08:43:14;;;;;;;;;;;;;;;19.55;29.27;101488.03;5001400;28;1570;-61
2022/01/26 08:45:40;;;;;;;;;;;;;;;19.53;29.08;101495.75;5000808;28;829;-60
2022/01/26 08:48:05;;;;;;;;;;;;;;;19.68;28.80;101473.66;5002334;28;1164;-60
2022/01/26 08:50:31;;;;;;;;;;;;;;;19.64;28.83;101486.34;5000458;28;1395;-61
2022/01/26 08:52:57;;;;;;;;;;;;;;;19.62;28.90;101469.25;5009247;28;1162;-61
2022/01/26 08:55:22;;;;;;;;;;;;;;;19.57;29.00;101463.75;5009523;28;1387;-61
2022/01/26 08:57:48;;;;;;;;;;;;;;;19.80;28.48;101463.19;5003834;28;1898;-58
2022/01/26 09:00:13;;;;;;;;;;;;;;;19.64;28.84;101467.03;5007067;28;1227;-60
2022/01/26 09:02:39;;;;;;;;;;;;;;;19.83;28.47;101451.59;4996758;28;1160;-59
2022/01/26 09:05:06;;;;;;;;;;;;;;;19.79;28.51;101474.47;5012571;28;810;-60
2022/01/26 09:07:32;;;;;;;;;;;;;;;19.87;28.21;101453.81;5015765;28;862;-59
2022/01/26 09:10:00;;;;;;;;;;;;;;;19.90;27.99;101458.78;5010697;28;962;-59
2022/01/26 09:12:26;;;;;;;;;;;;;;;19.87;28.22;101457.38;5003254;28;797;-58
2022/01/26 09:14:52;;;;;;;;;;;;;;;19.79;28.14;101460.69;5006582;28;812;-59
2022/01/26 09:17:19;;;;;;;;;;;;;;;19.76;28.20;101459.31;5009181;28;855;-61
2022/01/26 09:19:45;;;;;;;;;;;;;;;19.76;28.03;101456.53;4999147;28;949;-58
2022/01/26 09:22:12;;;;;;;;;;;;;;;19.77;28.46;101449.09;5004249;28;951;-58
2022/01/26 09:24:38;;;;;;;;;;;;;;;19.80;28.35;101449.38;5003497;28;1220;-58
2022/01/26 09:27:04;;;;;;;;;;;;;;;19.90;27.93;101453.25;5004370;28;1443;-58
2022/01/26 09:29:30;;;;;;;;;;;;;;;19.93;28.00;101453.50;5007371;28;1332;-58
2022/01/26 09:31:55;;;;;;;;;;;;;;;19.99;27.79;101468.97;5009481;28;1288;-58
2022/01/26 09:34:21;;;;;;;;;;;;;;;19.88;28.09;101439.72;5014315;28;1188;-57
2022/01/26 09:36:47;;;;;;;;;;;;;;;19.85;28.40;101451.31;5012136;28;1022;-59
2022/01/26 09:39:13;;;;;;;;;;;;;;;19.88;28.20;101444.41;4999421;28;1990;-58
2022/01/26 09:41:38;;;;;;;;;;;;;;;19.83;28.24;101457.09;4998847;28;840;-58
2022/01/26 09:44:05;;;;;;;;;;;;;;;20.06;27.69;101456.78;4998880;28;793;-58
2022/01/26 09:46:31;;;;;;;;;;;;;;;20.05;27.83;101455.13;4996690;28;1002;-58
2022/01/26 09:48:56;;;;;;;;;;;;;;;20.01;27.79;101449.34;5002258;28;841;-58
2022/01/26 09:51:22;;;;;;;;;;;;;;;19.87;27.85;101442.78;5017330;28;731;-58
2022/01/26 09:53:58;;;;;;;;;;;;;;;19.66;28.17;101432.56;5016771;28;829;-57
2022/01/26 09:56:23;;;;;;;;;;;;;;;19.41;28.64;101435.34;5003425;28;807;-57
2022/01/26 09:58:50;;;;;;;;;;;;;;;19.11;29.23;101443.34;4997847;28;1975;-57
2022/01/26 10:01:16;;;;;;;;;;;;;;;19.19;29.09;101424.59;5015963;28;746;-57
2022/01/26 10:03:43;;;;;;;;;;;;;;;19.14;29.11;101426.25;5017042;28;935;-57
2022/01/26 10:06:17;;;;;;;;;;;;;;;18.93;29.41;101430.91;5017098;28;885;-57
2022/01/26 10:19:01;;;;;;;;;;;;;;;19.20;29.03;101398.69;5012422;28;1910;-59
2022/01/26 10:21:27;;;;;;;;;;;;;;;19.51;28.21;101406.94;5008561;28;779;-58
2022/01/26 10:23:52;;;;;;;;;;;;;;;19.34;28.43;101396.19;4997984;28;1070;-56
2022/01/26 10:26:19;;;;;;;;;;;;;;;19.05;29.02;101405.03;5001293;28;1380;-56
2022/01/26 10:28:55;;;;;;;;;;;;;;;19.04;29.09;101408.88;5007126;28;1300;-56
2022/01/26 10:31:21;;;;;;;;;;;;;;;18.89;29.24;101390.41;4998361;28;1419;-59
2022/01/26 10:33:57;;;;;;;;;;;;;;;18.79;29.14;101393.97;5006075;28;1280;-58
2022/01/26 10:36:23;;;;;;;;;;;;;;;18.64;29.17;101376.28;5002364;28;1380;-58
2022/01/26 10:38:58;;;;;;;;;;;;;;;18.80;29.06;101379.91;5010349;28;1974;-59
2022/01/26 10:41:23;;;;;;;;;;;;;;;19.12;28.49;101372.50;5003512;28;1133;-59
2022/01/26 10:43:49;;;;;;;;;;;;;;;19.32;28.04;101378.00;4997025;28;897;-59
2022/01/26 10:46:28;;;;;;;;;;;;;;;19.62;27.85;101381.78;5001079;28;1114;-58
2022/01/26 10:51:55;;;;;;;;;;;;;;;20.12;27.17;101372.84;4983213;28;1314;-59
2022/01/26 10:54:36;;;;;;;;;;;;;;;19.49;28.06;101366.66;5014038;28;897;-59
2022/01/26 10:57:06;;;;;;;;;;;;;;;19.28;28.86;101374.13;4998038;28;814;-59
2022/01/26 10:59:35;;;;;;;;;;;;;;;19.47;28.84;101365.28;4997398;28;1957;-59
2022/01/26 11:02:01;;;;;;;;;;;;;;;19.64;28.61;101374.09;5003185;28;832;-60
2022/01/26 11:04:27;;;;;;;;;;;;;;;19.64;28.18;101362.19;5004075;28;769;-61
2022/01/26 11:06:52;;;;;;;;;;;;;;;19.49;28.17;101363.91;5003897;28;790;-62
2022/01/26 11:09:20;;;;;;;;;;;;;;;19.57;28.17;101364.44;5004792;28;919;-59
2022/01/26 11:11:46;;;;;;;;;;;;;;;19.62;28.33;101358.91;5007314;28;914;-61
2022/01/26 11:14:22;;;;;;;;;;;;;;;19.72;28.25;101358.88;5002747;28;960;-60
2022/01/26 11:16:48;;;;;;;;;;;;;;;19.58;28.78;101355.06;5003788;28;730;-62
2022/01/26 11:19:14;;;;;;;;;;;;;;;19.44;29.03;101372.19;5002444;28;1985;-61
2022/01/26 11:21:40;;;;;;;;;;;;;;;19.15;29.43;101361.75;5007256;28;1354;-61
2022/01/26 11:24:25;;;;;;;;;;;;;;;19.18;29.40;101356.78;5006043;28;1435;-60
2022/01/26 11:27:03;;;;;;;;;;;;;;;18.96;29.72;101347.69;5016958;28;1779;-60
2022/01/26 11:29:32;;;;;;;;;;;;;;;18.90;29.10;101354.31;5015285;28;1370;-60
2022/01/26 11:32:10;;;;;;;;;;;;;;;18.77;29.32;101355.63;5016318;28;1234;-62
2022/01/26 11:34:35;;;;;;;;;;;;;;;18.73;29.55;101340.78;5003542;28;826;-61
2022/01/26 11:37:02;;;;;;;;;;;;;;;18.60;30.01;101338.56;5006818;28;889;-60
2022/01/26 11:47:23;;;;;;;;;;;;;;;19.22;29.85;101330.31;5020500;28;1152;-62
2022/01/26 11:49:52;;;;;;;;;;;;;;;19.36;29.98;101323.09;5023660;28;1315;-61
2022/01/26 11:52:22;;;;;;;;;;;;;;;19.47;30.23;101322.00;5025700;28;1113;-61
2022/01/26 11:54:56;;;;;;;;;;;;;;;19.49;30.37;101335.50;5015448;28;868;-62
2022/01/26 11:57:38;;;;;;;;;;;;;;;19.63;30.26;101332.97;5003638;28;790;-63
2022/01/26 12:00:07;;;;;;;;;;;;;;;19.65;29.98;101336.28;5006660;28;908;-62
2022/01/26 12:05:16;;;;;;;;;;;;;;;19.65;29.82;101312.25;5002808;28;1293;-60
2022/01/26 12:07:55;;;;;;;;;;;;;;;19.78;29.83;101319.13;5011959;28;1332;-62
2022/01/26 12:10:28;;;;;;;;;;;;;;;19.71;29.88;101307.53;5018942;28;1154;-62
2022/01/26 12:12:57;;;;;;;;;;;;;;;19.75;29.90;101314.16;5006253;28;1387;-63
2022/01/26 12:15:25;;;;;;;;;;;;;;;19.72;30.15;101309.19;5009135;28;1356;-64
2022/01/26 12:18:57;;;;;;;;;;;;;;;19.58;30.69;101314.50;5013643;28;1971;-63
2022/01/26 12:42:36;;;;;;;;;;;;;;;19.71;30.24;101279.94;5011659;28;1205;-60
2022/01/26 12:45:01;;;;;;;;;;;;;;;19.61;30.62;101291.03;5002562;28;1478;-61
2022/01/26 12:47:28;;;;;;;;;;;;;;;19.79;30.70;101284.06;5006177;28;1486;-59
2022/01/26 12:49:55;;;;;;;;;;;;;;;19.79;30.92;101281.31;5005590;28;1253;-57
2022/01/26 12:52:20;;;;;;;;;;;;;;;19.75;30.91;101272.75;5004455;28;1504;-58
2022/01/26 12:54:46;;;;;;;;;;;;;;;19.87;30.85;101274.41;5005555;28;782;-62
2022/01/26 12:57:13;;;;;;;;;;;;;;;19.73;31.42;101282.47;4999432;28;817;-61
2022/01/26 12:59:39;;;;;;;;;;;;;;;19.82;31.05;101278.00;4999223;28;1977;-60
2022/01/26 13:02:04;;;;;;;;;;;;;;;19.76;31.21;101276.38;4999428;28;794;-61
2022/01/26 13:04:30;;;;;;;;;;;;;;;19.86;31.27;101284.63;5013379;28;1219;-61
2022/01/26 13:06:55;;;;;;;;;;;;;;;19.97;30.86;101283.44;5004164;28;918;-60
2022/01/26 13:09:21;;;;;;;;;;;;;;;19.95;31.00;101284.84;5005479;28;1271;-63
2022/01/26 13:11:48;;;;;;;;;;;;;;;19.90;31.41;101288.47;4998839;28;892;-66
2022/01/26 13:14:38;;;;;;;;;;;;;;;19.94;31.26;101289.53;4999137;28;783;-68
2022/01/26 13:27:19;;;;;;;;;;;;;;;19.87;31.41;101294.56;5016700;28;1391;-63
2022/01/26 13:30:05;;;;;;;;;;;;;;;19.78;31.54;101302.56;4998572;28;817;-61
2022/01/26 13:41:17;;;;;;;;;;;;;;;19.96;31.68;101298.38;5002243;28;809;-60
2022/01/26 13:46:44;;;;;;;;;;;;;;;19.86;31.73;101286.56;5005303;28;1209;-61
2022/01/26 13:54:13;;;;;;;;;;;;;;;19.86;31.31;101308.63;5011371;28;1530;-59
2022/01/26 13:59:29;;;;;;;;;;;;;;;19.86;30.77;101314.97;5015041;28;1903;-56
2022/01/26 14:01:57;;;;;;;;;;;;;;;19.88;30.69;101321.06;5013952;28;1335;-57
2022/01/26 14:04:22;;;;;;;;;;;;;;;19.91;30.72;101326.00;5012650;28;1129;-57
2022/01/26 14:06:47;;;;;;;;;;;;;;;19.90;31.28;101338.13;5008828;28;1208;-56
2022/01/26 14:09:13;;;;;;;;;;;;;;;19.79;31.95;101331.81;5005374;28;1197;-56
2022/01/26 14:11:39;;;;;;;;;;;;;;;19.80;31.64;101327.97;5011605;28;1215;-55
2022/01/26 14:14:04;;;;;;;;;;;;;;;19.88;31.76;101339.53;5004982;28;1144;-57
2022/01/26 14:16:37;;;;;;;;;;;;;;;19.74;31.67;101329.06;4997694;28;956;-59
2022/01/26 14:19:08;;;;;;;;;;;;;;;19.74;31.58;101344.78;5003032;28;1996;-61
2022/01/26 14:21:55;;;;;;;;;;;;;;;19.81;31.42;101340.66;5005259;28;1165;-59
2022/01/26 14:24:29;;;;;;;;;;;;;;;19.70;31.37;101338.19;5005975;28;1113;-62
2022/01/26 14:26:58;;;;;;;;;;;;;;;19.93;31.18;101350.56;5002249;28;834;-61
2022/01/26 14:29:55;;;;;;;;;;;;;;;19.76;31.11;101343.41;5003716;28;903;-62
2022/01/26 14:32:42;;;;;;;;;;;;;;;19.85;31.11;101351.13;5012666;28;1243;-60
2022/01/26 14:35:30;;;;;;;;;;;;;;;19.78;31.04;101343.97;5007536;28;1234;-62
2022/01/26 14:40:53;;;;;;;;;;;;;;;19.74;30.95;101350.31;5012016;28;1145;-60
2022/01/26 15:34:10;;;;;;;;;;;;;;;18.38;33.00;101372.63;4997095;28;959;-60
2022/01/26 15:42:23;;;;;;;;;;;;;;;18.24;33.22;101374.25;5012649;28;767;-60
2022/01/26 15:45:03;;;;;;;;;;;;;;;18.15;33.40;101384.16;5003432;28;1564;-60
2022/01/26 15:50:38;;;;;;;;;;;;;;;17.93;33.61;101382.41;5000858;28;833;-60
2022/01/26 16:20:07;;;;;;;;;;;;;;;18.07;33.03;101405.56;5001672;28;1906;-58
2022/01/26 16:36:35;;;;;;;;;;;;;;;17.92;33.43;101417.34;5013546;28;1426;-60
2022/01/26 17:43:16;;;;;;;;;;;;;;;18.30;32.65;101431.81;4998371;28;877;-61
2022/01/26 18:15:53;;;;;;;;;;;;;;;17.13;34.51;101443.69;4999623;28;1019;-60
2022/01/26 18:50:43;;;;;;;;;;;;;;;16.81;34.89;101460.09;5015735;28;822;-57
2022/01/26 18:53:09;;;;;;;;;;;;;;;16.90;34.89;101448.44;4997656;28;862;-58
2022/01/26 18:55:34;;;;;;;;;;;;;;;17.08;34.54;101438.13;5000089;28;1169;-61
2022/01/26 18:58:00;;;;;;;;;;;;;;;17.53;33.54;101447.03;4996852;28;1906;-60
2022/01/26 19:00:25;;;;;;;;;;;;;;;17.89;32.87;101455.53;5000099;28;869;-60
2022/01/26 19:02:51;;;;;;;;;;;;;;;18.12;32.64;101444.13;4997179;28;849;-60
2022/01/26 19:05:17;;;;;;;;;;;;;;;17.70;33.33;101444.97;4999931;28;842;-61
2022/01/26 19:07:44;;;;;;;;;;;;;;;17.34;34.01;101450.19;4997905;28;779;-62
2022/01/26 19:10:10;;;;;;;;;;;;;;;17.49;33.66;101451.38;4997158;28;850;-60
2022/01/26 19:12:38;;;;;;;;;;;;;;;18.02;32.79;101438.59;4996493;28;874;-60
2022/01/26 19:15:08;;;;;;;;;;;;;;;18.37;31.93;101442.59;4998122;28;893;-61
2022/01/26 19:17:50;;;;;;;;;;;;;;;18.04;32.56;101435.56;5003453;28;969;-61
2022/01/26 19:27:53;;;;;;;;;;;;;;;17.43;33.57;101437.63;5020067;28;818;-60
2022/01/26 19:33:29;;;;;;;;;;;;;;;18.67;31.63;101441.03;5000755;28;778;-62
2022/01/26 19:51:50;;;;;;;;;;;;;;;17.94;32.83;101439.91;5015248;28;766;-59
2022/01/26 19:54:16;;;;;;;;;;;;;;;17.95;32.74;101433.31;5016681;28;1084;-59
2022/01/26 19:56:41;;;;;;;;;;;;;;;18.01;32.75;101433.34;5002685;28;866;-59
2022/01/26 19:59:07;;;;;;;;;;;;;;;18.08;32.63;101431.19;5001014;28;1985;-59
2022/01/26 20:01:33;;;;;;;;;;;;;;;18.03;32.42;101423.72;5001022;28;920;-60
2022/01/26 20:03:58;;;;;;;;;;;;;;;18.04;32.56;101433.63;5011395;28;989;-60
2022/01/26 20:06:25;;;;;;;;;;;;;;;18.15;32.26;101441.97;5019433;28;1199;-61
2022/01/26 20:09:29;;;;;;;;;;;;;;;18.17;32.53;101442.50;5016239;28;950;-60
2022/01/26 20:11:55;;;;;;;;;;;;;;;18.20;32.48;101441.97;5014178;28;1350;-61
2022/01/26 20:14:24;;;;;;;;;;;;;;;18.30;32.14;101442.03;5000597;28;897;-60
2022/01/26 20:16:50;;;;;;;;;;;;;;;18.32;32.11;101456.34;5012761;28;1022;-60
2022/01/26 20:19:18;;;;;;;;;;;;;;;18.35;32.29;101443.97;5000369;28;1909;-61
2022/01/26 20:21:44;;;;;;;;;;;;;;;18.32;32.36;101453.56;5011839;28;1081;-61